sensor_id;sensor_type;location;lat;lon;timestamp;P1;durP1;ratioP1;P2;durP2;ratioP2
23346;SDS011;36852;45.466;11.066;2023-01-16T00:00:47;39.30;;;26.20;;
23346;SDS011;36852;45.466;11.066;2023-01-16T00:03:16;38.78;;;25.02;;
23346;SDS011;36852;45.466;11.066;2023-01-16T00:05:44;38.30;;;25.20;;
23346;SDS011;36852;45.466;11.066;2023-01-16T00:08:13;40.10;;;26.23;;
23346;SDS011;36852;45.466;11.066;2023-01-16T00:10:42;43.13;;;25.40;;
23346;SDS011;36852;45.466;11.066;2023-01-16T00:13:12;36.23;;;25.57;;
23346;SDS011;36852;45.466;11.066;2023-01-16T00:15:44;32.83;;;23.12;;
23346;SDS011;36852;45.466;11.066;2023-01-16T00:18:13;31.95;;;21.77;;
23346;SDS011;36852;45.466;11.066;2023-01-16T00:20:41;34.63;;;22.80;;
23346;SDS011;36852;45.466;11.066;2023-01-16T00:23:10;31.20;;;22.70;;
23346;SDS011;36852;45.466;11.066;2023-01-16T00:25:38;33.78;;;22.87;;
23346;SDS011;36852;45.466;11.066;2023-01-16T00:28:08;32.93;;;22.35;;
23346;SDS011;36852;45.466;11.066;2023-01-16T00:30:37;35.45;;;23.95;;
23346;SDS011;36852;45.466;11.066;2023-01-16T00:33:08;34.13;;;23.30;;
23346;SDS011;36852;45.466;11.066;2023-01-16T00:35:36;34.08;;;21.93;;
23346;SDS011;36852;45.466;11.066;2023-01-16T00:38:04;32.40;;;22.35;;
23346;SDS011;36852;45.466;11.066;2023-01-16T00:40:32;32.95;;;22.22;;
23346;SDS011;36852;45.466;11.066;2023-01-16T00:43:01;31.12;;;21.97;;
23346;SDS011;36852;45.466;11.066;2023-01-16T00:45:28;30.40;;;21.00;;
23346;SDS011;36852;45.466;11.066;2023-01-16T00:47:57;33.05;;;21.02;;
23346;SDS011;36852;45.466;11.066;2023-01-16T00:50:25;30.88;;;20.70;;
23346;SDS011;36852;45.466;11.066;2023-01-16T00:52:53;28.05;;;19.50;;
23346;SDS011;36852;45.466;11.066;2023-01-16T00:55:22;29.92;;;19.27;;
23346;SDS011;36852;45.466;11.066;2023-01-16T00:57:49;26.02;;;19.05;;
23346;SDS011;36852;45.466;11.066;2023-01-16T01:00:18;26.82;;;18.85;;
23346;SDS011;36852;45.466;11.066;2023-01-16T01:03:01;28.35;;;19.50;;
23346;SDS011;36852;45.466;11.066;2023-01-16T01:05:18;25.75;;;18.85;;
23346;SDS011;36852;45.466;11.066;2023-01-16T01:07:46;26.82;;;18.15;;
23346;SDS011;36852;45.466;11.066;2023-01-16T01:10:13;26.75;;;18.07;;
23346;SDS011;36852;45.466;11.066;2023-01-16T01:15:29;26.48;;;17.52;;
23346;SDS011;36852;45.466;11.066;2023-01-16T01:17:58;25.68;;;17.62;;
23346;SDS011;36852;45.466;11.066;2023-01-16T01:20:41;25.70;;;18.05;;
23346;SDS011;36852;45.466;11.066;2023-01-16T01:23:10;27.17;;;18.62;;
23346;SDS011;36852;45.466;11.066;2023-01-16T01:25:38;25.08;;;18.32;;
23346;SDS011;36852;45.466;11.066;2023-01-16T01:28:06;27.40;;;18.37;;
23346;SDS011;36852;45.466;11.066;2023-01-16T01:30:33;26.93;;;18.17;;
23346;SDS011;36852;45.466;11.066;2023-01-16T01:33:01;30.15;;;19.65;;
23346;SDS011;36852;45.466;11.066;2023-01-16T01:35:29;27.82;;;20.40;;
23346;SDS011;36852;45.466;11.066;2023-01-16T01:37:57;26.35;;;18.00;;
23346;SDS011;36852;45.466;11.066;2023-01-16T01:40:25;25.20;;;18.65;;
23346;SDS011;36852;45.466;11.066;2023-01-16T01:53:25;28.00;;;18.52;;
23346;SDS011;36852;45.466;11.066;2023-01-16T01:55:58;26.30;;;18.42;;
23346;SDS011;36852;45.466;11.066;2023-01-16T01:58:34;27.40;;;19.20;;
23346;SDS011;36852;45.466;11.066;2023-01-16T02:01:04;26.73;;;18.55;;
23346;SDS011;36852;45.466;11.066;2023-01-16T02:03:37;26.23;;;18.05;;
23346;SDS011;36852;45.466;11.066;2023-01-16T02:06:07;28.20;;;18.37;;
23346;SDS011;36852;45.466;11.066;2023-01-16T02:08:43;24.80;;;17.98;;
23346;SDS011;36852;45.466;11.066;2023-01-16T02:11:19;27.27;;;18.52;;
23346;SDS011;36852;45.466;11.066;2023-01-16T02:13:59;25.88;;;18.25;;
23346;SDS011;36852;45.466;11.066;2023-01-16T02:16:26;23.65;;;18.00;;
23346;SDS011;36852;45.466;11.066;2023-01-16T02:19:24;25.77;;;18.32;;
23346;SDS011;36852;45.466;11.066;2023-01-16T02:25:07;23.07;;;17.25;;
23346;SDS011;36852;45.466;11.066;2023-01-16T02:37:10;24.95;;;17.45;;
23346;SDS011;36852;45.466;11.066;2023-01-16T02:42:13;21.12;;;16.30;;
23346;SDS011;36852;45.466;11.066;2023-01-16T02:47:35;24.35;;;17.27;;
23346;SDS011;36852;45.466;11.066;2023-01-16T02:50:19;24.25;;;16.82;;
23346;SDS011;36852;45.466;11.066;2023-01-16T02:55:55;23.95;;;17.07;;
23346;SDS011;36852;45.466;11.066;2023-01-16T02:58:45;23.15;;;16.25;;
23346;SDS011;36852;45.466;11.066;2023-01-16T03:01:12;22.67;;;18.05;;
23346;SDS011;36852;45.466;11.066;2023-01-16T03:03:47;21.73;;;15.93;;
23346;SDS011;36852;45.466;11.066;2023-01-16T03:06:49;23.90;;;17.23;;
23346;SDS011;36852;45.466;11.066;2023-01-16T03:12:33;26.60;;;17.40;;
23346;SDS011;36852;45.466;11.066;2023-01-16T03:15:11;26.73;;;17.42;;
23346;SDS011;36852;45.466;11.066;2023-01-16T03:23:35;24.87;;;17.75;;
23346;SDS011;36852;45.466;11.066;2023-01-16T03:26:11;29.25;;;17.95;;
23346;SDS011;36852;45.466;11.066;2023-01-16T03:34:32;24.07;;;18.35;;
23346;SDS011;36852;45.466;11.066;2023-01-16T03:37:19;25.82;;;18.42;;
23346;SDS011;36852;45.466;11.066;2023-01-16T03:39:51;24.10;;;18.07;;
23346;SDS011;36852;45.466;11.066;2023-01-16T03:42:24;25.23;;;17.30;;
23346;SDS011;36852;45.466;11.066;2023-01-16T03:44:55;24.35;;;17.27;;
23346;SDS011;36852;45.466;11.066;2023-01-16T03:47:29;27.80;;;19.32;;
23346;SDS011;36852;45.466;11.066;2023-01-16T03:50:02;25.60;;;17.95;;
23346;SDS011;36852;45.466;11.066;2023-01-16T03:52:39;27.02;;;18.42;;
23346;SDS011;36852;45.466;11.066;2023-01-16T03:58:05;26.65;;;18.12;;
23346;SDS011;36852;45.466;11.066;2023-01-16T04:00:47;24.57;;;17.25;;
23346;SDS011;36852;45.466;11.066;2023-01-16T04:06:26;24.80;;;16.52;;
23346;SDS011;36852;45.466;11.066;2023-01-16T04:08:56;25.02;;;17.77;;
23346;SDS011;36852;45.466;11.066;2023-01-16T04:11:26;23.40;;;17.62;;
23346;SDS011;36852;45.466;11.066;2023-01-16T04:16:31;22.73;;;16.87;;
23346;SDS011;36852;45.466;11.066;2023-01-16T04:19:01;24.18;;;18.15;;
23346;SDS011;36852;45.466;11.066;2023-01-16T04:21:30;22.80;;;17.98;;
23346;SDS011;36852;45.466;11.066;2023-01-16T04:23:59;22.40;;;17.27;;
23346;SDS011;36852;45.466;11.066;2023-01-16T04:29:18;20.05;;;15.50;;
23346;SDS011;36852;45.466;11.066;2023-01-16T04:31:46;20.60;;;15.78;;
23346;SDS011;36852;45.466;11.066;2023-01-16T04:34:14;22.52;;;15.40;;
23346;SDS011;36852;45.466;11.066;2023-01-16T04:36:41;19.10;;;14.60;;
23346;SDS011;36852;45.466;11.066;2023-01-16T04:39:10;21.57;;;15.78;;
23346;SDS011;36852;45.466;11.066;2023-01-16T04:41:38;20.37;;;15.32;;
23346;SDS011;36852;45.466;11.066;2023-01-16T04:44:07;19.55;;;15.00;;
23346;SDS011;36852;45.466;11.066;2023-01-16T04:46:36;19.60;;;15.40;;
23346;SDS011;36852;45.466;11.066;2023-01-16T04:49:05;20.23;;;15.30;;
23346;SDS011;36852;45.466;11.066;2023-01-16T04:51:33;20.60;;;15.50;;
23346;SDS011;36852;45.466;11.066;2023-01-16T04:56:52;22.13;;;15.10;;
23346;SDS011;36852;45.466;11.066;2023-01-16T04:59:20;20.62;;;15.05;;
23346;SDS011;36852;45.466;11.066;2023-01-16T05:01:48;22.37;;;15.25;;
23346;SDS011;36852;45.466;11.066;2023-01-16T05:04:16;21.00;;;15.30;;
23346;SDS011;36852;45.466;11.066;2023-01-16T05:06:45;19.50;;;14.95;;
23346;SDS011;36852;45.466;11.066;2023-01-16T05:09:15;19.85;;;15.20;;
23346;SDS011;36852;45.466;11.066;2023-01-16T05:11:43;20.10;;;15.03;;
23346;SDS011;36852;45.466;11.066;2023-01-16T05:16:46;20.57;;;15.98;;
23346;SDS011;36852;45.466;11.066;2023-01-16T05:19:14;22.40;;;15.60;;
23346;SDS011;36852;45.466;11.066;2023-01-16T05:21:41;20.90;;;15.63;;
23346;SDS011;36852;45.466;11.066;2023-01-16T05:24:09;19.25;;;14.85;;
23346;SDS011;36852;45.466;11.066;2023-01-16T05:26:39;20.97;;;14.93;;
23346;SDS011;36852;45.466;11.066;2023-01-16T05:29:07;21.33;;;15.40;;
23346;SDS011;36852;45.466;11.066;2023-01-16T05:34:20;21.45;;;14.28;;
23346;SDS011;36852;45.466;11.066;2023-01-16T05:36:48;19.50;;;13.90;;
23346;SDS011;36852;45.466;11.066;2023-01-16T05:39:16;22.77;;;15.15;;
23346;SDS011;36852;45.466;11.066;2023-01-16T05:41:43;19.45;;;14.47;;
23346;SDS011;36852;45.466;11.066;2023-01-16T05:44:12;21.02;;;15.35;;
23346;SDS011;36852;45.466;11.066;2023-01-16T05:46:39;21.50;;;15.43;;
23346;SDS011;36852;45.466;11.066;2023-01-16T05:49:07;22.05;;;15.78;;
23346;SDS011;36852;45.466;11.066;2023-01-16T05:54:18;18.98;;;14.43;;
23346;SDS011;36852;45.466;11.066;2023-01-16T05:56:49;20.10;;;15.18;;
23346;SDS011;36852;45.466;11.066;2023-01-16T05:59:17;20.37;;;14.55;;
23346;SDS011;36852;45.466;11.066;2023-01-16T06:01:46;20.88;;;15.70;;
23346;SDS011;36852;45.466;11.066;2023-01-16T06:04:14;19.75;;;13.58;;
23346;SDS011;36852;45.466;11.066;2023-01-16T06:06:42;19.62;;;13.22;;
23346;SDS011;36852;45.466;11.066;2023-01-16T06:09:10;16.17;;;11.53;;
23346;SDS011;36852;45.466;11.066;2023-01-16T06:14:28;14.95;;;11.10;;
23346;SDS011;36852;45.466;11.066;2023-01-16T06:16:56;14.50;;;10.95;;
23346;SDS011;36852;45.466;11.066;2023-01-16T06:19:24;14.40;;;10.50;;
23346;SDS011;36852;45.466;11.066;2023-01-16T06:21:52;15.45;;;10.35;;
23346;SDS011;36852;45.466;11.066;2023-01-16T06:24:20;13.03;;;10.08;;
23346;SDS011;36852;45.466;11.066;2023-01-16T06:26:48;15.28;;;9.75;;
23346;SDS011;36852;45.466;11.066;2023-01-16T06:29:16;14.13;;;9.95;;
23346;SDS011;36852;45.466;11.066;2023-01-16T06:31:43;13.93;;;9.35;;
23346;SDS011;36852;45.466;11.066;2023-01-16T06:34:11;11.70;;;8.78;;
23346;SDS011;36852;45.466;11.066;2023-01-16T06:36:39;14.47;;;8.93;;
23346;SDS011;36852;45.466;11.066;2023-01-16T06:39:10;11.65;;;8.35;;
23346;SDS011;36852;45.466;11.066;2023-01-16T06:44:20;14.55;;;10.28;;
23346;SDS011;36852;45.466;11.066;2023-01-16T06:46:48;12.82;;;9.50;;
23346;SDS011;36852;45.466;11.066;2023-01-16T06:49:16;13.20;;;9.10;;
23346;SDS011;36852;45.466;11.066;2023-01-16T06:51:43;11.97;;;8.90;;
23346;SDS011;36852;45.466;11.066;2023-01-16T06:54:11;12.68;;;9.45;;
23346;SDS011;36852;45.466;11.066;2023-01-16T06:56:40;10.28;;;8.03;;
23346;SDS011;36852;45.466;11.066;2023-01-16T07:01:43;11.50;;;8.40;;
23346;SDS011;36852;45.466;11.066;2023-01-16T07:04:10;11.45;;;8.30;;
23346;SDS011;36852;45.466;11.066;2023-01-16T07:06:40;10.50;;;7.83;;
23346;SDS011;36852;45.466;11.066;2023-01-16T07:09:09;12.53;;;9.20;;
23346;SDS011;36852;45.466;11.066;2023-01-16T07:11:38;11.48;;;8.95;;
23346;SDS011;36852;45.466;11.066;2023-01-16T07:14:06;15.28;;;10.63;;
23346;SDS011;36852;45.466;11.066;2023-01-16T07:16:45;13.20;;;10.10;;
23346;SDS011;36852;45.466;11.066;2023-01-16T07:19:35;15.68;;;9.98;;
23346;SDS011;36852;45.466;11.066;2023-01-16T07:22:21;18.92;;;12.80;;
23346;SDS011;36852;45.466;11.066;2023-01-16T07:25:11;15.53;;;10.75;;
23346;SDS011;36852;45.466;11.066;2023-01-16T07:27:52;14.70;;;9.90;;
23346;SDS011;36852;45.466;11.066;2023-01-16T07:30:20;16.45;;;9.20;;
23346;SDS011;36852;45.466;11.066;2023-01-16T07:32:49;11.93;;;8.15;;
23346;SDS011;36852;45.466;11.066;2023-01-16T07:35:17;10.28;;;8.08;;
23346;SDS011;36852;45.466;11.066;2023-01-16T07:37:45;11.25;;;7.78;;
23346;SDS011;36852;45.466;11.066;2023-01-16T07:40:16;11.50;;;7.37;;
23346;SDS011;36852;45.466;11.066;2023-01-16T07:45:32;9.63;;;7.22;;
23346;SDS011;36852;45.466;11.066;2023-01-16T07:47:59;9.88;;;7.25;;
23346;SDS011;36852;45.466;11.066;2023-01-16T07:50:31;9.63;;;7.67;;
23346;SDS011;36852;45.466;11.066;2023-01-16T07:52:59;10.65;;;7.67;;
23346;SDS011;36852;45.466;11.066;2023-01-16T07:55:27;12.68;;;8.03;;
23346;SDS011;36852;45.466;11.066;2023-01-16T07:57:55;12.10;;;7.78;;
23346;SDS011;36852;45.466;11.066;2023-01-16T08:00:22;10.95;;;7.20;;
23346;SDS011;36852;45.466;11.066;2023-01-16T08:02:50;11.10;;;7.90;;
23346;SDS011;36852;45.466;11.066;2023-01-16T08:05:18;10.90;;;8.30;;
23346;SDS011;36852;45.466;11.066;2023-01-16T08:07:47;11.48;;;8.30;;
23346;SDS011;36852;45.466;11.066;2023-01-16T08:10:16;10.85;;;7.87;;
23346;SDS011;36852;45.466;11.066;2023-01-16T08:12:44;11.55;;;8.23;;
23346;SDS011;36852;45.466;11.066;2023-01-16T08:15:12;11.85;;;8.68;;
23346;SDS011;36852;45.466;11.066;2023-01-16T08:17:41;14.03;;;9.45;;
23346;SDS011;36852;45.466;11.066;2023-01-16T08:20:12;13.22;;;9.48;;
23346;SDS011;36852;45.466;11.066;2023-01-16T08:22:45;17.52;;;10.08;;
23346;SDS011;36852;45.466;11.066;2023-01-16T08:25:12;20.00;;;12.33;;
23346;SDS011;36852;45.466;11.066;2023-01-16T08:27:41;24.27;;;13.93;;
23346;SDS011;36852;45.466;11.066;2023-01-16T08:30:10;25.12;;;15.58;;
23346;SDS011;36852;45.466;11.066;2023-01-16T08:32:39;24.30;;;16.07;;
23346;SDS011;36852;45.466;11.066;2023-01-16T08:35:08;29.12;;;16.52;;
23346;SDS011;36852;45.466;11.066;2023-01-16T08:37:36;27.13;;;16.12;;
23346;SDS011;36852;45.466;11.066;2023-01-16T08:40:04;25.40;;;15.20;;
23346;SDS011;36852;45.466;11.066;2023-01-16T08:42:33;25.20;;;14.87;;
23346;SDS011;36852;45.466;11.066;2023-01-16T08:45:20;20.70;;;14.40;;
23346;SDS011;36852;45.466;11.066;2023-01-16T08:48:07;23.67;;;14.40;;
23346;SDS011;36852;45.466;11.066;2023-01-16T08:50:54;27.30;;;15.15;;
23346;SDS011;36852;45.466;11.066;2023-01-16T08:53:42;36.70;;;17.98;;
23346;SDS011;36852;45.466;11.066;2023-01-16T08:56:10;26.35;;;16.27;;
23346;SDS011;36852;45.466;11.066;2023-01-16T08:58:37;27.42;;;16.55;;
23346;SDS011;36852;45.466;11.066;2023-01-16T09:01:06;29.60;;;18.00;;
23346;SDS011;36852;45.466;11.066;2023-01-16T09:03:33;33.23;;;19.27;;
23346;SDS011;36852;45.466;11.066;2023-01-16T09:06:01;33.67;;;19.92;;
23346;SDS011;36852;45.466;11.066;2023-01-16T09:08:29;36.53;;;20.30;;
23346;SDS011;36852;45.466;11.066;2023-01-16T09:10:57;40.67;;;21.30;;
23346;SDS011;36852;45.466;11.066;2023-01-16T09:13:46;43.13;;;23.00;;
23346;SDS011;36852;45.466;11.066;2023-01-16T09:16:18;48.15;;;23.80;;
23346;SDS011;36852;45.466;11.066;2023-01-16T09:18:48;41.02;;;23.73;;
23346;SDS011;36852;45.466;11.066;2023-01-16T09:21:16;47.35;;;24.52;;
23346;SDS011;36852;45.466;11.066;2023-01-16T09:23:49;48.33;;;24.70;;
23346;SDS011;36852;45.466;11.066;2023-01-16T09:26:18;48.10;;;25.68;;
23346;SDS011;36852;45.466;11.066;2023-01-16T09:28:47;48.98;;;25.60;;
23346;SDS011;36852;45.466;11.066;2023-01-16T09:31:15;52.35;;;27.02;;
23346;SDS011;36852;45.466;11.066;2023-01-16T09:33:43;47.58;;;24.72;;
23346;SDS011;36852;45.466;11.066;2023-01-16T09:36:11;49.83;;;26.20;;
23346;SDS011;36852;45.466;11.066;2023-01-16T09:38:39;53.68;;;27.60;;
23346;SDS011;36852;45.466;11.066;2023-01-16T09:41:12;50.85;;;27.30;;
23346;SDS011;36852;45.466;11.066;2023-01-16T09:43:45;56.45;;;26.93;;
23346;SDS011;36852;45.466;11.066;2023-01-16T09:48:58;55.33;;;27.95;;
23346;SDS011;36852;45.466;11.066;2023-01-16T09:51:35;52.27;;;26.90;;
23346;SDS011;36852;45.466;11.066;2023-01-16T09:54:17;50.78;;;25.12;;
23346;SDS011;36852;45.466;11.066;2023-01-16T09:57:09;54.15;;;27.30;;
23346;SDS011;36852;45.466;11.066;2023-01-16T09:59:59;52.60;;;26.33;;
23346;SDS011;36852;45.466;11.066;2023-01-16T10:02:32;53.00;;;27.07;;
23346;SDS011;36852;45.466;11.066;2023-01-16T10:05:02;51.05;;;27.32;;
23346;SDS011;36852;45.466;11.066;2023-01-16T10:24:19;54.63;;;27.32;;
23346;SDS011;36852;45.466;11.066;2023-01-16T10:26:58;58.58;;;29.72;;
23346;SDS011;36852;45.466;11.066;2023-01-16T10:29:36;57.27;;;28.77;;
23346;SDS011;36852;45.466;11.066;2023-01-16T10:37:27;46.02;;;24.80;;
23346;SDS011;36852;45.466;11.066;2023-01-16T10:39:56;47.75;;;24.65;;
23346;SDS011;36852;45.466;11.066;2023-01-16T10:42:31;47.43;;;24.35;;
23346;SDS011;36852;45.466;11.066;2023-01-16T10:45:22;41.40;;;21.82;;
23346;SDS011;36852;45.466;11.066;2023-01-16T10:48:17;28.38;;;14.78;;
23346;SDS011;36852;45.466;11.066;2023-01-16T10:51:04;30.00;;;15.25;;
23346;SDS011;36852;45.466;11.066;2023-01-16T10:53:34;25.92;;;14.25;;
23346;SDS011;36852;45.466;11.066;2023-01-16T10:56:02;28.83;;;15.45;;
23346;SDS011;36852;45.466;11.066;2023-01-16T11:01:13;21.30;;;12.60;;
23346;SDS011;36852;45.466;11.066;2023-01-16T11:03:47;20.12;;;12.25;;
23346;SDS011;36852;45.466;11.066;2023-01-16T11:06:20;16.00;;;9.83;;
23346;SDS011;36852;45.466;11.066;2023-01-16T11:11:44;9.83;;;6.00;;
23346;SDS011;36852;45.466;11.066;2023-01-16T11:14:38;7.97;;;5.42;;
23346;SDS011;36852;45.466;11.066;2023-01-16T11:17:31;7.58;;;5.37;;
23346;SDS011;36852;45.466;11.066;2023-01-16T11:22:55;10.08;;;6.25;;
23346;SDS011;36852;45.466;11.066;2023-01-16T11:25:26;10.15;;;5.45;;
23346;SDS011;36852;45.466;11.066;2023-01-16T11:27:55;9.05;;;5.30;;
23346;SDS011;36852;45.466;11.066;2023-01-16T11:30:28;8.48;;;5.25;;
23346;SDS011;36852;45.466;11.066;2023-01-16T11:33:08;9.10;;;5.65;;
23346;SDS011;36852;45.466;11.066;2023-01-16T11:35:40;8.05;;;5.50;;
23346;SDS011;36852;45.466;11.066;2023-01-16T11:38:12;7.50;;;5.33;;
23346;SDS011;36852;45.466;11.066;2023-01-16T11:40:45;11.68;;;5.72;;
23346;SDS011;36852;45.466;11.066;2023-01-16T11:43:16;8.43;;;6.00;;
23346;SDS011;36852;45.466;11.066;2023-01-16T11:46:07;9.10;;;6.45;;
23346;SDS011;36852;45.466;11.066;2023-01-16T11:48:42;7.97;;;5.83;;
23346;SDS011;36852;45.466;11.066;2023-01-16T11:51:17;7.70;;;5.20;;
23346;SDS011;36852;45.466;11.066;2023-01-16T11:53:46;9.30;;;6.40;;
23346;SDS011;36852;45.466;11.066;2023-01-16T12:13:47;12.85;;;8.93;;
23346;SDS011;36852;45.466;11.066;2023-01-16T12:19:54;13.08;;;9.20;;
23346;SDS011;36852;45.466;11.066;2023-01-16T12:51:00;14.07;;;9.45;;
23346;SDS011;36852;45.466;11.066;2023-01-16T12:56:52;15.95;;;10.15;;
23346;SDS011;36852;45.466;11.066;2023-01-16T12:59:26;15.00;;;10.18;;
23346;SDS011;36852;45.466;11.066;2023-01-16T13:01:59;14.73;;;10.60;;
23346;SDS011;36852;45.466;11.066;2023-01-16T13:04:43;15.25;;;11.12;;
23346;SDS011;36852;45.466;11.066;2023-01-16T13:07:07;13.65;;;10.55;;
23346;SDS011;36852;45.466;11.066;2023-01-16T13:15:17;16.10;;;10.80;;
23346;SDS011;36852;45.466;11.066;2023-01-16T13:17:48;18.32;;;11.55;;
23346;SDS011;36852;45.466;11.066;2023-01-16T13:20:19;17.90;;;12.35;;
23346;SDS011;36852;45.466;11.066;2023-01-16T13:25:42;16.70;;;11.68;;
23346;SDS011;36852;45.466;11.066;2023-01-16T13:28:24;14.43;;;11.28;;
23346;SDS011;36852;45.466;11.066;2023-01-16T13:31:00;16.60;;;11.43;;
23346;SDS011;36852;45.466;11.066;2023-01-16T13:33:31;16.85;;;11.20;;
23346;SDS011;36852;45.466;11.066;2023-01-16T13:38:55;17.62;;;10.58;;
23346;SDS011;36852;45.466;11.066;2023-01-16T13:41:40;14.53;;;9.85;;
23346;SDS011;36852;45.466;11.066;2023-01-16T13:49:38;14.78;;;10.60;;
23346;SDS011;36852;45.466;11.066;2023-01-16T13:52:16;13.83;;;10.03;;
23346;SDS011;36852;45.466;11.066;2023-01-16T13:57:33;13.25;;;9.55;;
23346;SDS011;36852;45.466;11.066;2023-01-16T14:00:09;14.78;;;10.10;;
23346;SDS011;36852;45.466;11.066;2023-01-16T14:10:44;11.85;;;8.23;;
23346;SDS011;36852;45.466;11.066;2023-01-16T14:13:36;11.00;;;8.35;;
23346;SDS011;36852;45.466;11.066;2023-01-16T14:19:02;11.78;;;8.43;;
23346;SDS011;36852;45.466;11.066;2023-01-16T14:24:17;14.70;;;8.85;;
23346;SDS011;36852;45.466;11.066;2023-01-16T14:26:54;14.38;;;9.65;;
23346;SDS011;36852;45.466;11.066;2023-01-16T14:29:34;14.73;;;9.48;;
23346;SDS011;36852;45.466;11.066;2023-01-16T14:32:20;15.88;;;10.63;;
23346;SDS011;36852;45.466;11.066;2023-01-16T14:34:56;17.05;;;10.25;;
23346;SDS011;36852;45.466;11.066;2023-01-16T14:37:42;13.38;;;9.68;;
23346;SDS011;36852;45.466;11.066;2023-01-16T14:40:22;16.15;;;9.40;;
23346;SDS011;36852;45.466;11.066;2023-01-16T14:45:39;10.68;;;8.20;;
23346;SDS011;36852;45.466;11.066;2023-01-16T14:51:53;15.05;;;7.97;;
23346;SDS011;36852;45.466;11.066;2023-01-16T14:54:20;8.68;;;7.15;;
23346;SDS011;36852;45.466;11.066;2023-01-16T14:57:16;8.25;;;6.83;;
23346;SDS011;36852;45.466;11.066;2023-01-16T15:02:30;7.62;;;6.45;;
23346;SDS011;36852;45.466;11.066;2023-01-16T15:05:50;8.50;;;6.67;;
23346;SDS011;36852;45.466;11.066;2023-01-16T15:07:58;10.85;;;7.72;;
23346;SDS011;36852;45.466;11.066;2023-01-16T15:10:29;13.45;;;7.65;;
23346;SDS011;36852;45.466;11.066;2023-01-16T15:13:15;12.18;;;9.20;;
23346;SDS011;36852;45.466;11.066;2023-01-16T15:16:01;11.22;;;7.87;;
23346;SDS011;36852;45.466;11.066;2023-01-16T15:21:18;11.20;;;7.45;;
23346;SDS011;36852;45.466;11.066;2023-01-16T15:24:06;10.00;;;7.58;;
23346;SDS011;36852;45.466;11.066;2023-01-16T15:26:52;10.32;;;7.25;;
23346;SDS011;36852;45.466;11.066;2023-01-16T15:29:34;9.75;;;7.00;;
23346;SDS011;36852;45.466;11.066;2023-01-16T15:32:10;8.58;;;7.22;;
23346;SDS011;36852;45.466;11.066;2023-01-16T15:34:42;9.65;;;8.10;;
23346;SDS011;36852;45.466;11.066;2023-01-16T15:37:21;10.00;;;8.25;;
23346;SDS011;36852;45.466;11.066;2023-01-16T15:39:51;9.53;;;7.60;;
23346;SDS011;36852;45.466;11.066;2023-01-16T15:42:20;13.13;;;8.15;;
23346;SDS011;36852;45.466;11.066;2023-01-16T15:48:25;12.30;;;7.15;;
23346;SDS011;36852;45.466;11.066;2023-01-16T15:51:12;14.47;;;7.05;;
23346;SDS011;36852;45.466;11.066;2023-01-16T15:53:46;11.10;;;7.30;;
23346;SDS011;36852;45.466;11.066;2023-01-16T15:59:21;8.85;;;7.60;;
23346;SDS011;36852;45.466;11.066;2023-01-16T16:01:51;11.65;;;7.37;;
23346;SDS011;36852;45.466;11.066;2023-01-16T16:04:19;11.38;;;7.03;;
23346;SDS011;36852;45.466;11.066;2023-01-16T16:06:49;8.68;;;6.35;;
23346;SDS011;36852;45.466;11.066;2023-01-16T16:09:18;7.47;;;5.95;;
23346;SDS011;36852;45.466;11.066;2023-01-16T16:11:49;9.05;;;6.28;;
23346;SDS011;36852;45.466;11.066;2023-01-16T16:14:22;5.80;;;4.85;;
23346;SDS011;36852;45.466;11.066;2023-01-16T16:20:26;5.08;;;4.08;;
23346;SDS011;36852;45.466;11.066;2023-01-16T16:23:09;7.87;;;4.40;;
23346;SDS011;36852;45.466;11.066;2023-01-16T16:28:24;8.28;;;4.90;;
23346;SDS011;36852;45.466;11.066;2023-01-16T16:33:57;7.85;;;4.53;;
23346;SDS011;36852;45.466;11.066;2023-01-16T16:36:34;7.80;;;4.35;;
23346;SDS011;36852;45.466;11.066;2023-01-16T16:39:04;7.53;;;4.05;;
23346;SDS011;36852;45.466;11.066;2023-01-16T16:41:42;5.83;;;4.40;;
23346;SDS011;36852;45.466;11.066;2023-01-16T16:44:44;5.95;;;4.37;;
23346;SDS011;36852;45.466;11.066;2023-01-16T16:47:19;6.33;;;4.50;;
23346;SDS011;36852;45.466;11.066;2023-01-16T16:49:59;4.72;;;3.95;;
23346;SDS011;36852;45.466;11.066;2023-01-16T16:54:59;4.00;;;3.40;;
23346;SDS011;36852;45.466;11.066;2023-01-16T16:57:33;4.47;;;3.30;;
23346;SDS011;36852;45.466;11.066;2023-01-16T17:00:04;6.72;;;4.17;;
23346;SDS011;36852;45.466;11.066;2023-01-16T17:02:32;6.92;;;4.70;;
23346;SDS011;36852;45.466;11.066;2023-01-16T17:05:01;6.15;;;4.45;;
23346;SDS011;36852;45.466;11.066;2023-01-16T17:07:29;4.75;;;3.87;;
23346;SDS011;36852;45.466;11.066;2023-01-16T17:09:58;7.42;;;3.62;;
23346;SDS011;36852;45.466;11.066;2023-01-16T17:12:27;5.05;;;3.65;;
23346;SDS011;36852;45.466;11.066;2023-01-16T17:14:55;4.85;;;3.83;;
23346;SDS011;36852;45.466;11.066;2023-01-16T17:17:26;5.37;;;4.00;;
23346;SDS011;36852;45.466;11.066;2023-01-16T17:19:53;4.75;;;3.47;;
23346;SDS011;36852;45.466;11.066;2023-01-16T17:22:21;6.30;;;3.87;;
23346;SDS011;36852;45.466;11.066;2023-01-16T17:24:49;3.72;;;3.25;;
23346;SDS011;36852;45.466;11.066;2023-01-16T17:27:17;3.15;;;2.90;;
23346;SDS011;36852;45.466;11.066;2023-01-16T17:29:45;2.80;;;2.50;;
23346;SDS011;36852;45.466;11.066;2023-01-16T17:34:57;3.62;;;2.98;;
23346;SDS011;36852;45.466;11.066;2023-01-16T17:37:25;4.28;;;3.20;;
23346;SDS011;36852;45.466;11.066;2023-01-16T17:39:52;3.72;;;2.98;;
23346;SDS011;36852;45.466;11.066;2023-01-16T17:42:23;3.55;;;2.95;;
23346;SDS011;36852;45.466;11.066;2023-01-16T17:45:18;3.00;;;2.62;;
23346;SDS011;36852;45.466;11.066;2023-01-16T17:48:13;4.78;;;2.62;;
23346;SDS011;36852;45.466;11.066;2023-01-16T17:50:41;3.65;;;2.60;;
23346;SDS011;36852;45.466;11.066;2023-01-16T17:53:14;4.40;;;3.00;;
23346;SDS011;36852;45.466;11.066;2023-01-16T17:55:43;3.22;;;2.60;;
23346;SDS011;36852;45.466;11.066;2023-01-16T17:58:23;5.45;;;2.90;;
23346;SDS011;36852;45.466;11.066;2023-01-16T18:00:56;3.05;;;2.42;;
23346;SDS011;36852;45.466;11.066;2023-01-16T18:03:26;5.62;;;2.95;;
23346;SDS011;36852;45.466;11.066;2023-01-16T18:08:32;4.30;;;3.10;;
23346;SDS011;36852;45.466;11.066;2023-01-16T18:11:01;4.42;;;2.90;;
23346;SDS011;36852;45.466;11.066;2023-01-16T18:13:33;4.33;;;2.80;;
23346;SDS011;36852;45.466;11.066;2023-01-16T18:16:20;3.70;;;2.35;;
23346;SDS011;36852;45.466;11.066;2023-01-16T18:19:06;3.52;;;2.40;;
23346;SDS011;36852;45.466;11.066;2023-01-16T18:21:36;6.62;;;2.55;;
23346;SDS011;36852;45.466;11.066;2023-01-16T18:24:22;3.42;;;2.50;;
23346;SDS011;36852;45.466;11.066;2023-01-16T18:26:50;3.67;;;2.40;;
23346;SDS011;36852;45.466;11.066;2023-01-16T18:29:18;3.08;;;2.35;;
23346;SDS011;36852;45.466;11.066;2023-01-16T18:31:46;4.17;;;2.90;;
23346;SDS011;36852;45.466;11.066;2023-01-16T18:34:33;3.47;;;2.47;;
23346;SDS011;36852;45.466;11.066;2023-01-16T18:37:03;5.08;;;3.22;;
23346;SDS011;36852;45.466;11.066;2023-01-16T18:39:31;4.97;;;3.75;;
23346;SDS011;36852;45.466;11.066;2023-01-16T18:42:18;4.33;;;3.65;;
23346;SDS011;36852;45.466;11.066;2023-01-16T18:45:05;5.03;;;3.50;;